createdAt,value
2023-05-13T00:02:08.480Z,6.28
2023-05-13T00:04:35.654Z,6.42
2023-05-13T00:07:02.762Z,6.43
2023-05-13T00:09:29.935Z,6.26
2023-05-13T00:11:57.045Z,6.14
2023-05-13T00:14:24.135Z,6.12
2023-05-13T00:16:51.473Z,5.77
2023-05-13T00:19:18.635Z,5.69
2023-05-13T00:21:45.802Z,5.72
2023-05-13T00:24:12.891Z,5.83
2023-05-13T00:26:39.970Z,5.91
2023-05-13T00:29:07.128Z,6.00
2023-05-13T00:31:35.476Z,6.05
2023-05-13T00:34:03.233Z,6.05
2023-05-13T00:36:30.585Z,5.94
2023-05-13T00:38:57.709Z,6.00
2023-05-13T00:41:25.078Z,6.11
2023-05-13T00:43:55.998Z,6.19
2023-05-13T00:46:23.993Z,6.25
2023-05-13T00:48:52.026Z,6.32
2023-05-13T00:51:19.253Z,6.28
2023-05-13T00:53:47.124Z,6.15
2023-05-13T00:56:15.305Z,6.09
2023-05-13T00:58:42.443Z,6.02
2023-05-13T01:01:21.301Z,6.07
2023-05-13T01:04:25.459Z,6.07
2023-05-13T01:07:07.890Z,6.03
2023-05-13T01:09:55.295Z,6.08
2023-05-13T01:12:36.982Z,6.25
2023-05-13T01:15:22.329Z,6.43
2023-05-13T01:17:58.314Z,6.47
2023-05-13T01:20:28.524Z,6.53
2023-05-13T01:22:56.825Z,6.45
2023-05-13T01:25:25.763Z,6.36
2023-05-13T01:27:53.679Z,6.30
2023-05-13T01:30:21.946Z,6.18
2023-05-13T01:32:50.937Z,6.24
2023-05-13T01:35:18.551Z,6.12
2023-05-13T01:37:47.470Z,6.18
2023-05-13T01:40:28.095Z,6.14
2023-05-13T01:43:01.430Z,6.05
2023-05-13T01:45:30.420Z,6.05
2023-05-13T01:47:58.180Z,6.05
2023-05-13T01:50:27.131Z,6.23
2023-05-13T01:52:54.427Z,6.46
2023-05-13T01:55:22.053Z,6.61
2023-05-13T01:57:49.777Z,6.78
2023-05-13T02:00:17.284Z,6.84
2023-05-13T02:02:44.716Z,6.84
2023-05-13T02:05:11.938Z,6.76
2023-05-13T02:07:39.156Z,6.78
2023-05-13T02:10:06.619Z,6.78
2023-05-13T02:12:33.746Z,6.66
2023-05-13T02:15:01.286Z,6.57
2023-05-13T02:17:30.840Z,6.41
2023-05-13T02:19:57.959Z,6.28
2023-05-13T02:22:25.713Z,6.17
2023-05-13T02:24:52.825Z,6.11
2023-05-13T02:27:20.981Z,5.99
2023-05-13T02:29:48.124Z,5.89
2023-05-13T02:32:15.184Z,5.93
2023-05-13T02:34:42.581Z,6.10
2023-05-13T02:37:09.684Z,6.21
2023-05-13T02:39:45.398Z,6.35
2023-05-13T02:42:13.230Z,6.37
2023-05-13T02:44:40.582Z,6.34
2023-05-13T02:47:09.098Z,6.35
2023-05-13T02:49:36.132Z,6.30
2023-05-13T02:52:04.018Z,6.41
2023-05-13T02:54:34.534Z,6.38
2023-05-13T02:57:01.577Z,6.40
2023-05-13T02:59:28.629Z,6.40
2023-05-13T03:01:55.695Z,6.30
2023-05-13T03:04:22.772Z,6.25
2023-05-13T03:06:51.321Z,6.28
2023-05-13T03:09:18.704Z,6.35
2023-05-13T03:11:45.823Z,6.27
2023-05-13T03:14:12.928Z,6.24
2023-05-13T03:16:40.171Z,6.00
2023-05-13T03:19:07.427Z,5.76
2023-05-13T03:21:34.781Z,5.48
2023-05-13T03:24:02.052Z,5.39
2023-05-13T03:26:29.152Z,5.34
2023-05-13T03:28:57.215Z,5.45
2023-05-13T03:31:24.672Z,5.50
2023-05-13T03:33:52.027Z,5.52
2023-05-13T03:36:19.652Z,5.53
2023-05-13T03:38:46.818Z,5.65
2023-05-13T03:41:17.542Z,5.89
2023-05-13T03:43:46.860Z,6.03
2023-05-13T03:46:14.972Z,6.14
2023-05-13T03:48:42.380Z,6.27
2023-05-13T03:51:09.457Z,6.48
2023-05-13T03:53:36.985Z,6.78
2023-05-13T03:56:04.436Z,7.23
2023-05-13T03:58:31.618Z,7.52
2023-05-13T04:00:58.742Z,7.73
2023-05-13T04:03:27.087Z,7.95
2023-05-13T04:05:54.262Z,8.14
2023-05-13T04:08:21.479Z,8.33
2023-05-13T04:10:49.493Z,8.47
2023-05-13T04:13:16.646Z,8.61
2023-05-13T04:15:43.766Z,8.77
2023-05-13T04:18:11.167Z,8.93
2023-05-13T04:20:39.740Z,9.11
2023-05-13T04:23:07.373Z,9.27
2023-05-13T04:25:37.473Z,9.47
2023-05-13T04:28:05.141Z,9.65
2023-05-13T04:30:36.654Z,9.85
2023-05-13T04:33:04.728Z,9.95
2023-05-13T04:35:33.184Z,10.10
2023-05-13T04:38:02.324Z,10.29
2023-05-13T04:40:30.127Z,10.46
2023-05-13T04:43:01.383Z,10.61
2023-05-13T04:45:33.172Z,10.75
2023-05-13T04:48:01.381Z,10.89
2023-05-13T04:50:28.585Z,10.98
2023-05-13T04:52:56.731Z,11.04
2023-05-13T04:55:26.017Z,11.07
2023-05-13T04:57:55.396Z,11.18
2023-05-13T05:00:22.885Z,11.30
2023-05-13T05:02:51.849Z,11.43
2023-05-13T05:05:19.094Z,11.52
2023-05-13T05:07:47.027Z,11.61
2023-05-13T05:10:15.712Z,11.75
2023-05-13T05:12:48.887Z,11.81
2023-05-13T05:15:16.220Z,11.83
2023-05-13T05:17:46.631Z,11.94
2023-05-13T05:20:13.820Z,12.05
2023-05-13T05:22:42.305Z,12.14
2023-05-13T05:25:12.076Z,12.29
2023-05-13T05:27:39.545Z,12.42
2023-05-13T05:30:09.221Z,12.59
2023-05-13T05:32:37.666Z,12.75
2023-05-13T05:35:06.275Z,12.80
2023-05-13T05:37:34.164Z,12.86
2023-05-13T05:40:01.471Z,12.89
2023-05-13T05:42:29.640Z,12.97
2023-05-13T05:44:56.774Z,13.17
2023-05-13T05:47:23.965Z,13.30
2023-05-13T05:49:51.413Z,13.23
2023-05-13T05:52:19.176Z,13.26
2023-05-13T05:54:46.274Z,13.18
2023-05-13T05:57:13.433Z,13.36
2023-05-13T05:59:40.605Z,13.46
2023-05-13T06:02:07.903Z,13.67
2023-05-13T06:04:36.163Z,13.64
2023-05-13T06:07:03.345Z,14.35
2023-05-13T06:09:30.808Z,14.01
2023-05-13T06:11:57.951Z,13.78
2023-05-13T06:14:25.265Z,13.64
2023-05-13T06:16:53.715Z,13.70
2023-05-13T06:19:22.784Z,13.79
2023-05-13T06:21:50.070Z,14.04
2023-05-13T06:24:17.147Z,13.99
2023-05-13T06:26:45.966Z,14.09
2023-05-13T06:29:14.801Z,14.60
2023-05-13T06:31:41.966Z,14.78
2023-05-13T06:34:09.189Z,14.68
2023-05-13T06:36:36.543Z,14.42
2023-05-13T06:39:06.116Z,14.70
2023-05-13T06:41:35.151Z,14.63
2023-05-13T06:44:08.369Z,15.29
2023-05-13T06:46:40.301Z,14.86
2023-05-13T06:49:07.525Z,14.59
2023-05-13T06:51:35.081Z,14.46
2023-05-13T06:54:02.207Z,14.61
2023-05-13T06:56:30.398Z,14.99
2023-05-13T06:58:57.577Z,15.16
2023-05-13T07:01:24.751Z,15.29
2023-05-13T07:03:51.924Z,15.30
2023-05-13T07:06:19.165Z,15.57
2023-05-13T07:08:46.465Z,15.88
2023-05-13T07:11:13.582Z,14.92
2023-05-13T07:13:40.684Z,15.30
2023-05-13T07:16:07.995Z,15.96
2023-05-13T07:18:35.365Z,15.21
2023-05-13T07:21:02.464Z,15.24
2023-05-13T07:23:29.590Z,15.80
2023-05-13T07:25:56.653Z,15.79
2023-05-13T07:28:23.939Z,16.45
2023-05-13T07:30:53.561Z,15.95
2023-05-13T07:33:20.764Z,15.64
2023-05-13T07:35:47.955Z,15.62
2023-05-13T07:38:15.492Z,15.71
2023-05-13T07:40:42.646Z,15.50
2023-05-13T07:43:10.185Z,15.15
2023-05-13T07:45:39.355Z,15.27
2023-05-13T07:48:06.690Z,15.92
2023-05-13T07:50:33.969Z,16.21
2023-05-13T07:53:01.196Z,16.25
2023-05-13T07:55:28.226Z,16.41
2023-05-13T07:57:55.292Z,16.67
2023-05-13T08:00:22.500Z,15.98
2023-05-13T08:02:49.747Z,15.79
2023-05-13T08:05:16.945Z,16.34
2023-05-13T08:07:44.108Z,17.03
2023-05-13T08:10:11.225Z,17.30
2023-05-13T08:12:40.435Z,17.37
2023-05-13T08:15:08.161Z,17.87
2023-05-13T08:17:35.594Z,17.45
2023-05-13T08:20:03.755Z,17.39
2023-05-13T08:22:31.126Z,17.03
2023-05-13T08:25:01.077Z,17.24
2023-05-13T08:27:28.301Z,17.89
2023-05-13T08:29:55.455Z,18.28
2023-05-13T08:32:22.680Z,17.23
2023-05-13T08:34:50.990Z,17.87
2023-05-13T08:37:18.127Z,18.34
2023-05-13T08:39:45.222Z,18.56
2023-05-13T08:42:12.699Z,18.64
2023-05-13T08:44:43.963Z,18.79
2023-05-13T08:47:22.737Z,18.76
2023-05-13T08:49:51.283Z,18.58
2023-05-13T08:52:21.044Z,19.08
2023-05-13T08:54:48.952Z,18.73
2023-05-13T08:57:16.814Z,18.76
2023-05-13T08:59:43.971Z,18.60
2023-05-13T09:02:11.158Z,18.99
2023-05-13T09:04:42.293Z,18.51
2023-05-13T09:07:10.649Z,18.78
2023-05-13T09:09:38.056Z,18.66
2023-05-13T09:12:06.049Z,18.98
2023-05-13T09:14:33.154Z,19.10
2023-05-13T09:17:02.555Z,18.90
2023-05-13T09:19:29.822Z,19.09
2023-05-13T09:21:57.691Z,18.85
2023-05-13T09:24:24.777Z,19.18
2023-05-13T09:26:52.236Z,19.08
2023-05-13T09:29:22.168Z,18.79
2023-05-13T09:31:54.424Z,19.10
2023-05-13T09:34:35.237Z,18.62
2023-05-13T09:37:04.788Z,18.63
2023-05-13T09:39:34.598Z,18.74
2023-05-13T09:42:04.543Z,18.92
2023-05-13T09:44:32.939Z,18.94
2023-05-13T10:17:41.534Z,16.73
2023-05-13T10:20:08.998Z,17.11
2023-05-13T10:22:37.220Z,17.64
2023-05-13T10:25:05.340Z,17.29
2023-05-13T10:27:34.074Z,17.86
2023-05-13T10:30:05.909Z,18.42
2023-05-13T10:32:33.085Z,18.72
2023-05-13T10:35:06.870Z,18.16
2023-05-13T10:37:43.678Z,18.70
2023-05-13T10:40:16.669Z,18.98
2023-05-13T10:42:54.181Z,19.30
2023-05-13T10:45:27.649Z,19.53
2023-05-13T10:47:56.464Z,19.64
2023-05-13T10:50:24.533Z,20.05
2023-05-13T10:52:56.671Z,20.14
2023-05-13T10:55:24.204Z,20.46
2023-05-13T10:58:10.962Z,20.41
2023-05-13T11:00:39.071Z,20.53
2023-05-13T11:03:18.899Z,20.81
2023-05-13T11:05:58.967Z,20.36
2023-05-13T11:08:43.744Z,20.01
2023-05-13T11:11:22.865Z,20.22
2023-05-13T11:13:54.633Z,20.91
2023-05-13T11:16:23.335Z,20.78
2023-05-13T11:18:54.322Z,21.15
2023-05-13T11:21:33.096Z,20.82
2023-05-13T11:24:05.965Z,19.77
2023-05-13T11:26:51.738Z,20.43
2023-05-13T11:29:31.215Z,21.18
2023-05-13T11:32:00.808Z,20.70
2023-05-13T11:34:29.267Z,20.09
2023-05-13T11:37:05.397Z,19.80
2023-05-13T11:39:33.316Z,20.37
2023-05-13T11:42:04.112Z,20.59
2023-05-13T11:44:31.676Z,20.83
2023-05-13T11:46:59.750Z,20.73
2023-05-13T11:49:33.661Z,20.49
2023-05-13T11:52:14.651Z,20.54
2023-05-13T11:54:53.701Z,21.06
2023-05-13T11:57:26.291Z,21.27
2023-05-13T12:00:05.437Z,21.29
2023-05-13T12:02:40.794Z,20.86
2023-05-13T12:05:09.990Z,20.44
2023-05-13T12:07:38.548Z,20.99
2023-05-13T12:10:07.299Z,21.38
2023-05-13T12:12:38.204Z,21.27
2023-05-13T12:15:10.296Z,20.80
2023-05-13T12:17:37.810Z,21.00
2023-05-13T12:20:08.446Z,21.16
2023-05-13T12:22:36.603Z,20.59
2023-05-13T12:25:41.009Z,21.24
2023-05-13T12:28:24.335Z,21.05
2023-05-13T12:31:01.871Z,21.38
2023-05-13T12:33:42.992Z,21.77
2023-05-13T12:36:20.563Z,21.89
2023-05-13T12:38:55.499Z,21.43
2023-05-13T12:41:26.030Z,22.05
2023-05-13T12:44:18.090Z,21.76
2023-05-13T12:46:55.777Z,21.66
2023-05-13T12:49:22.974Z,22.01
2023-05-13T12:51:51.830Z,22.10
2023-05-13T12:54:19.149Z,22.16
2023-05-13T12:56:46.280Z,21.88
2023-05-13T12:59:14.670Z,21.74
2023-05-13T13:01:43.047Z,21.64
2023-05-13T13:04:10.644Z,22.06
2023-05-13T13:06:37.936Z,22.59
2023-05-13T13:09:06.152Z,22.11
2023-05-13T13:11:33.237Z,21.76
2023-05-13T13:14:00.286Z,21.81
2023-05-13T13:16:27.655Z,21.67
2023-05-13T13:18:58.957Z,21.47
2023-05-13T13:21:27.019Z,21.51
2023-05-13T13:23:54.170Z,21.23
2023-05-13T13:26:23.290Z,21.04
2023-05-13T13:28:50.410Z,20.66
2023-05-13T13:31:17.609Z,20.61
2023-05-13T13:33:44.870Z,20.20
2023-05-13T13:36:11.983Z,20.17
2023-05-13T13:38:39.106Z,20.19
2023-05-13T13:41:06.355Z,19.80
2023-05-13T13:43:33.535Z,20.29
2023-05-13T13:46:00.778Z,20.72
2023-05-13T13:48:27.910Z,20.78
2023-05-13T13:50:55.199Z,20.88
2023-05-13T13:53:22.408Z,20.20
2023-05-13T13:55:49.626Z,20.41
2023-05-13T13:58:16.722Z,20.05
2023-05-13T14:00:43.896Z,18.66
2023-05-13T14:03:11.063Z,18.79
2023-05-13T14:05:38.472Z,18.61
2023-05-13T14:08:05.912Z,18.97
2023-05-13T14:10:33.062Z,18.90
2023-05-13T14:13:00.186Z,18.93
2023-05-13T14:15:29.801Z,19.14
2023-05-13T14:17:57.709Z,19.11
2023-05-13T14:20:25.185Z,18.84
2023-05-13T14:22:52.280Z,19.19
2023-05-13T14:25:19.326Z,19.02
2023-05-13T14:27:46.426Z,19.20
2023-05-13T14:30:13.702Z,19.15
2023-05-13T14:32:45.102Z,18.70
2023-05-13T14:35:13.094Z,18.85
2023-05-13T14:37:41.425Z,18.78
2023-05-13T14:40:09.744Z,18.40
2023-05-13T14:42:36.915Z,18.62
2023-05-13T14:45:04.250Z,18.43
2023-05-13T14:47:31.780Z,18.28
2023-05-13T14:49:58.984Z,18.39
2023-05-13T14:52:26.209Z,18.50
2023-05-13T14:54:54.355Z,18.39
2023-05-13T14:57:21.507Z,18.11
2023-05-13T14:59:48.612Z,17.81
2023-05-13T15:02:17.390Z,18.11
2023-05-13T15:04:44.898Z,18.10
2023-05-13T15:07:12.220Z,17.93
2023-05-13T15:09:39.379Z,17.90
2023-05-13T15:12:07.142Z,17.64
2023-05-13T15:14:34.188Z,17.71
2023-05-13T15:17:01.395Z,17.90
2023-05-13T15:19:28.859Z,18.04
2023-05-13T15:21:55.980Z,17.91
2023-05-13T15:24:23.155Z,17.73
2023-05-13T15:26:50.802Z,17.63
2023-05-13T15:29:18.186Z,17.51
2023-05-13T15:31:45.365Z,17.66
2023-05-13T15:34:12.448Z,17.57
2023-05-13T15:36:39.531Z,17.39
2023-05-13T15:39:07.016Z,17.00
2023-05-13T15:41:34.144Z,16.99
2023-05-13T15:44:01.250Z,17.07
2023-05-13T15:46:28.471Z,16.96
2023-05-13T15:48:55.960Z,16.92
2023-05-13T15:51:23.048Z,17.02
2023-05-13T15:53:50.659Z,17.05
2023-05-13T15:56:17.803Z,16.94
2023-05-13T15:58:45.145Z,16.59
2023-05-13T16:01:12.253Z,16.68
2023-05-13T16:03:39.412Z,16.89
2023-05-13T16:06:06.713Z,16.91
2023-05-13T16:08:33.827Z,16.78
2023-05-13T16:11:01.093Z,16.44
2023-05-13T16:13:28.171Z,16.29
2023-05-13T16:15:55.822Z,16.56
2023-05-13T16:18:23.127Z,16.31
2023-05-13T16:20:50.295Z,15.90
2023-05-13T16:23:17.387Z,15.81
2023-05-13T16:25:44.633Z,15.90
2023-05-13T16:28:11.749Z,15.87
2023-05-13T16:30:39.581Z,15.69
2023-05-13T16:33:08.091Z,15.71
2023-05-13T16:35:36.493Z,15.65
2023-05-13T16:38:03.701Z,15.46
2023-05-13T16:40:30.798Z,15.37
2023-05-13T16:43:00.442Z,15.28
2023-05-13T16:45:29.730Z,15.28
2023-05-13T16:47:57.100Z,15.28
2023-05-13T16:50:24.539Z,15.18
2023-05-13T16:52:51.859Z,14.82
2023-05-13T16:55:19.011Z,14.99
2023-05-13T16:57:46.938Z,14.90
2023-05-13T17:00:14.654Z,14.84
2023-05-13T17:02:42.924Z,14.92
2023-05-13T17:05:10.294Z,14.75
2023-05-13T17:07:37.428Z,14.95
2023-05-13T17:10:04.944Z,14.99
2023-05-13T17:12:32.128Z,14.71
2023-05-13T17:14:59.315Z,14.65
2023-05-13T17:19:53.786Z,14.82
2023-05-13T17:22:20.954Z,14.83
2023-05-13T17:24:48.083Z,14.73
2023-05-13T17:27:15.216Z,14.43
2023-05-13T17:29:42.329Z,14.17
2023-05-13T17:32:09.549Z,14.17
2023-05-13T17:34:36.618Z,14.03
2023-05-13T17:37:03.830Z,13.98
2023-05-13T17:39:31.023Z,13.95
2023-05-13T17:41:58.176Z,13.83
2023-05-13T17:44:25.511Z,13.84
2023-05-13T17:46:52.629Z,13.57
2023-05-13T17:49:19.737Z,13.70
2023-05-13T17:51:46.823Z,12.90
2023-05-13T17:54:14.264Z,12.45
2023-05-13T17:56:41.386Z,13.11
2023-05-13T17:59:08.591Z,13.39
2023-05-13T18:01:35.710Z,13.12
2023-05-13T18:04:02.809Z,13.12
2023-05-13T18:06:29.872Z,12.85
2023-05-13T18:08:57.061Z,12.94
2023-05-13T18:11:24.114Z,12.96
2023-05-13T18:13:51.192Z,12.90
2023-05-13T18:16:19.550Z,12.94
2023-05-13T18:18:48.906Z,13.05
2023-05-13T18:21:16.266Z,13.19
2023-05-13T18:23:45.906Z,13.44
2023-05-13T18:26:13.042Z,13.05
2023-05-13T18:28:45.007Z,13.45
2023-05-13T18:31:12.225Z,13.04
2023-05-13T18:33:39.423Z,13.24
2023-05-13T18:36:08.027Z,13.06
2023-05-13T18:38:35.993Z,13.02
2023-05-13T18:41:03.842Z,12.57
2023-05-13T18:43:31.034Z,12.56
2023-05-13T18:45:58.373Z,12.82
2023-05-13T18:48:25.530Z,12.93
2023-05-13T18:50:53.254Z,13.06
2023-05-13T18:53:20.702Z,12.96
2023-05-13T18:55:47.807Z,12.64
2023-05-13T18:58:14.969Z,12.79
2023-05-13T19:00:42.656Z,12.84
2023-05-13T19:03:09.912Z,12.77
2023-05-13T19:05:37.081Z,12.80
2023-05-13T19:08:05.435Z,12.68
2023-05-13T19:10:39.105Z,12.61
2023-05-13T19:13:07.312Z,12.73
2023-05-13T19:15:34.629Z,12.60
2023-05-13T19:18:02.098Z,12.46
2023-05-13T19:20:30.241Z,12.41
2023-05-13T19:22:57.486Z,12.43
2023-05-13T19:25:24.690Z,12.36
2023-05-13T19:27:51.931Z,12.05
2023-05-13T19:30:19.108Z,12.04
2023-05-13T19:32:46.361Z,12.07
2023-05-13T19:35:13.534Z,12.18
2023-05-13T19:37:40.874Z,12.26
2023-05-13T19:40:09.107Z,12.39
2023-05-13T19:42:36.338Z,12.32
2023-05-13T19:45:06.409Z,12.31
2023-05-13T19:47:34.946Z,12.22
2023-05-13T19:50:02.414Z,12.30
2023-05-13T19:52:29.883Z,12.36
2023-05-13T19:54:57.055Z,12.11
2023-05-13T19:57:24.151Z,12.30
2023-05-13T19:59:51.846Z,12.25
2023-05-13T20:02:19.119Z,12.43
2023-05-13T20:04:46.237Z,12.00
2023-05-13T20:07:13.313Z,11.72
2023-05-13T20:09:40.542Z,11.30
2023-05-13T20:12:07.938Z,11.77
2023-05-13T20:14:52.049Z,11.81
2023-05-13T20:17:21.252Z,11.18
2023-05-13T20:19:49.622Z,10.98
2023-05-13T20:22:18.362Z,11.23
2023-05-13T20:24:49.024Z,11.32
2023-05-13T20:27:17.645Z,11.24
2023-05-13T20:29:47.326Z,10.65
2023-05-13T20:32:18.504Z,10.47
2023-05-13T20:34:45.570Z,10.55
2023-05-13T20:37:12.673Z,10.34
2023-05-13T20:39:39.718Z,10.80
2023-05-13T20:42:06.886Z,10.51
2023-05-13T20:44:34.004Z,10.44
2023-05-13T20:47:01.078Z,10.51
2023-05-13T20:49:28.386Z,10.10
2023-05-13T20:51:55.571Z,9.87
2023-05-13T20:54:22.693Z,9.72
2023-05-13T20:56:49.798Z,9.85
2023-05-13T20:59:16.961Z,10.36
2023-05-13T21:01:47.623Z,10.63
2023-05-13T21:04:14.932Z,10.77
2023-05-13T21:06:42.267Z,10.94
2023-05-13T21:09:09.428Z,11.33
2023-05-13T21:11:36.578Z,10.77
2023-05-13T21:14:03.823Z,11.23
2023-05-13T21:16:31.188Z,11.21
2023-05-13T21:18:58.533Z,11.27
2023-05-13T21:21:25.843Z,11.41
2023-05-13T21:23:53.056Z,11.55
2023-05-13T21:26:22.045Z,11.61
2023-05-13T21:28:49.150Z,11.57
2023-05-13T21:31:16.319Z,10.76
2023-05-13T21:33:43.512Z,10.34
2023-05-13T21:36:10.608Z,10.07
2023-05-13T21:38:37.935Z,9.60
2023-05-13T21:41:05.110Z,9.37
2023-05-13T21:43:32.194Z,9.26
2023-05-13T21:45:59.364Z,9.10
2023-05-13T21:48:26.664Z,9.11
2023-05-13T21:50:53.997Z,9.24
2023-05-13T21:53:22.495Z,9.51
2023-05-13T21:55:49.641Z,9.80
2023-05-13T21:58:16.787Z,9.72
2023-05-13T22:00:43.929Z,10.11
2023-05-13T22:03:11.017Z,10.40
2023-05-13T22:05:43.822Z,9.96
2023-05-13T22:08:11.478Z,10.04
2023-05-13T22:10:39.469Z,9.76
2023-05-13T22:13:06.813Z,10.05
2023-05-13T22:15:33.937Z,9.89
2023-05-13T22:18:01.217Z,9.58
2023-05-13T22:20:28.490Z,9.33
2023-05-13T22:22:56.173Z,9.28
2023-05-13T22:25:23.335Z,9.26
2023-05-13T22:27:51.211Z,9.14
2023-05-13T22:30:18.677Z,8.53
2023-05-13T22:32:45.975Z,8.40
2023-05-13T22:35:13.129Z,7.89
2023-05-13T22:37:40.289Z,7.54
2023-05-13T22:40:11.253Z,7.14
2023-05-13T22:42:38.272Z,6.92
2023-05-13T22:45:05.784Z,6.89
2023-05-13T22:47:32.907Z,6.90
2023-05-13T22:50:00.085Z,6.95
2023-05-13T22:52:27.197Z,6.99
2023-05-13T22:54:54.252Z,6.99
2023-05-13T22:57:22.197Z,7.06
2023-05-13T22:59:49.310Z,6.96
2023-05-13T23:02:16.401Z,6.87
2023-05-13T23:04:43.471Z,6.80
2023-05-13T23:07:10.536Z,6.64
2023-05-13T23:09:37.602Z,6.48
2023-05-13T23:12:05.112Z,6.48
2023-05-13T23:14:32.199Z,6.52
2023-05-13T23:16:59.324Z,6.55
2023-05-13T23:19:26.415Z,6.76
2023-05-13T23:21:53.859Z,6.77
2023-05-13T23:24:21.356Z,6.72
2023-05-13T23:26:49.481Z,6.69
2023-05-13T23:29:16.934Z,6.61
2023-05-13T23:31:44.097Z,6.57
2023-05-13T23:34:11.247Z,6.59
2023-05-13T23:36:38.366Z,6.59
2023-05-13T23:39:06.235Z,6.57
2023-05-13T23:41:35.049Z,6.63
2023-05-13T23:44:02.690Z,6.60
2023-05-13T23:46:29.773Z,6.72
2023-05-13T23:48:57.087Z,6.79
2023-05-13T23:51:24.139Z,6.78
2023-05-13T23:53:52.029Z,6.78
2023-05-13T23:56:19.073Z,6.82
2023-05-13T23:58:46.134Z,6.95
